Time;durP1;ratioP1;P1;durP2;ratioP2;P2;SDS_P1;SDS_P2;PMS_P1;PMS_P2;Temp;Humidity;BMP_temperature;BMP_pressure;BME280_temperature;BME280_humidity;BME280_pressure;Samples;Min_cycle;Max_cycle;Signal;HPM_P1;HPM_P2
2023/09/07 00:00:59;;;;;;;3.53;1.35;;;;;;;19.54;55.29;100266.34;4474500;32;33701;-78
2023/09/07 00:03:28;;;;;;;2.60;1.27;;;;;;;19.46;55.74;100272.88;4475837;32;34794;-80
2023/09/07 00:05:57;;;;;;;3.50;1.30;;;;;;;19.28;56.01;100269.19;4478420;32;34330;-79
2023/09/07 00:08:26;;;;;;;2.37;1.27;;;;;;;19.24;56.08;100267.63;4473569;32;34822;-77
2023/09/07 00:10:56;;;;;;;2.35;1.25;;;;;;;19.40;55.79;100261.69;4472246;32;33296;-80
2023/09/07 00:13:25;;;;;;;1.52;1.00;;;;;;;19.28;56.03;100262.19;4475984;32;34930;-78
2023/09/07 00:15:54;;;;;;;3.00;1.45;;;;;;;19.29;55.84;100261.25;4480849;32;34075;-79
2023/09/07 00:18:22;;;;;;;2.35;1.30;;;;;;;19.19;56.04;100263.38;4475562;32;33745;-79
2023/09/07 00:20:51;;;;;;;2.60;1.37;;;;;;;19.33;55.43;100264.59;4475905;32;33404;-79
2023/09/07 00:23:20;;;;;;;1.87;1.30;;;;;;;19.19;55.76;100266.03;4473007;32;33635;-78
2023/09/07 00:25:50;;;;;;;2.65;1.45;;;;;;;19.11;55.91;100264.59;4476117;32;34591;-79
2023/09/07 00:28:20;;;;;;;2.22;1.20;;;;;;;19.09;55.94;100269.09;4481210;32;34059;-78
2023/09/07 00:30:48;;;;;;;2.07;1.30;;;;;;;19.05;56.10;100260.44;4476037;32;32915;-78
2023/09/07 00:33:17;;;;;;;2.15;1.30;;;;;;;19.18;55.59;100266.94;4474456;32;33331;-79
2023/09/07 00:35:46;;;;;;;2.95;1.25;;;;;;;19.09;55.93;100269.09;4468026;32;34248;-78
2023/09/07 00:38:15;;;;;;;2.42;1.50;;;;;;;19.23;55.18;100268.53;4477221;32;33975;-78
2023/09/07 00:40:45;;;;;;;2.03;1.17;;;;;;;19.02;55.77;100276.34;4468306;32;33079;-79
2023/09/07 00:43:14;;;;;;;1.50;0.88;;;;;;;19.18;55.41;100272.22;4475213;32;34866;-80
2023/09/07 00:45:45;;;;;;;2.58;1.10;;;;;;;19.16;55.42;100263.53;4475237;32;33769;-78
2023/09/07 00:48:16;;;;;;;0.80;0.80;;;;;;;19.17;55.50;100270.47;4471848;32;33495;-79
2023/09/07 00:50:45;;;;;;;1.25;0.90;;;;;;;19.12;55.39;100256.66;4472645;32;34118;-77
2023/09/07 00:53:16;;;;;;;1.58;0.98;;;;;;;19.21;54.94;100268.59;4473277;32;33977;-79
2023/09/07 00:55:46;;;;;;;1.40;1.00;;;;;;;19.03;55.47;100264.06;4475392;32;35771;-78
2023/09/07 00:58:14;;;;;;;1.23;0.85;;;;;;;18.89;56.02;100267.22;4472986;32;34559;-79
2023/09/07 01:00:45;;;;;;;1.95;1.08;;;;;;;19.05;55.45;100268.34;4476826;32;34176;-79
2023/09/07 01:03:15;;;;;;;2.42;1.20;;;;;;;19.06;55.23;100266.56;4463322;32;33493;-79
2023/09/07 01:05:55;;;;;;;1.73;1.20;;;;;;;19.23;54.77;100264.09;4468491;32;33611;-80
2023/09/07 01:08:26;;;;;;;2.15;1.17;;;;;;;19.08;55.15;100260.31;4466720;32;34310;-78
2023/09/07 01:10:55;;;;;;;1.58;0.90;;;;;;;19.07;55.37;100260.41;4473307;32;33012;-77
2023/09/07 01:13:24;;;;;;;2.45;1.20;;;;;;;19.09;55.15;100269.09;4482781;32;34602;-78
2023/09/07 01:15:54;;;;;;;1.52;0.90;;;;;;;18.86;55.80;100262.06;4462055;32;35155;-79
2023/09/07 01:18:23;;;;;;;3.35;1.52;;;;;;;19.15;55.02;100260.94;4478151;32;33081;-77
2023/09/07 01:20:53;;;;;;;1.92;0.88;;;;;;;19.07;55.49;100266.50;4477599;32;34204;-78
2023/09/07 01:23:23;;;;;;;2.20;1.30;;;;;;;18.93;55.83;100271.44;4467683;32;33633;-78
2023/09/07 01:25:54;;;;;;;4.62;1.37;;;;;;;19.12;55.28;100264.56;4461158;32;33683;-78
2023/09/07 01:28:23;;;;;;;2.62;1.45;;;;;;;18.98;55.65;100266.84;4461020;32;33947;-80
2023/09/07 01:30:53;;;;;;;1.37;1.23;;;;;;;19.09;55.35;100263.81;4460038;32;32739;-78
2023/09/07 01:33:22;;;;;;;1.65;1.17;;;;;;;18.96;55.87;100258.16;4461352;32;33575;-78
2023/09/07 01:35:52;;;;;;;2.77;1.27;;;;;;;18.76;56.45;100262.41;4467946;32;33198;-79
2023/09/07 01:38:23;;;;;;;4.80;1.50;;;;;;;18.89;56.43;100264.56;4459998;32;34113;-78
2023/09/07 01:40:52;;;;;;;2.80;1.17;;;;;;;18.90;56.12;100263.69;4460720;32;33336;-77
2023/09/07 01:43:21;;;;;;;1.75;0.98;;;;;;;18.78;56.46;100264.16;4475005;32;34110;-79
2023/09/07 01:45:50;;;;;;;2.95;1.70;;;;;;;18.81;56.41;100266.66;4477657;32;34592;-78
2023/09/07 01:48:19;;;;;;;3.40;1.45;;;;;;;18.82;56.49;100268.34;4465923;32;33617;-78
2023/09/07 01:50:48;;;;;;;2.03;0.90;;;;;;;18.89;56.75;100268.06;4463297;32;33099;-78
2023/09/07 01:53:17;;;;;;;3.12;1.05;;;;;;;18.75;57.19;100270.34;4464983;32;34634;-77
2023/09/07 01:55:47;;;;;;;2.50;1.33;;;;;;;18.85;56.75;100265.62;4479006;32;34477;-79
2023/09/07 01:58:17;;;;;;;1.52;0.98;;;;;;;18.80;56.77;100270.19;4468785;32;33961;-79
2023/09/07 02:00:46;;;;;;;1.15;0.90;;;;;;;18.75;57.06;100271.19;4466573;32;33866;-78
2023/09/07 02:03:15;;;;;;;2.12;1.62;;;;;;;18.61;57.33;100270.00;4472523;32;33423;-78
2023/09/07 02:05:46;;;;;;;3.20;1.48;;;;;;;18.54;57.38;100269.38;4460722;32;33681;-79
2023/09/07 02:08:15;;;;;;;3.47;1.45;;;;;;;18.46;57.70;100271.41;4467769;32;32949;-78
2023/09/07 02:10:44;;;;;;;2.05;1.23;;;;;;;18.71;57.08;100266.97;4460854;32;32354;-79
2023/09/07 02:13:14;;;;;;;1.25;0.90;;;;;;;18.65;57.13;100266.31;4470132;32;33488;-78
2023/09/07 02:15:43;;;;;;;2.28;1.40;;;;;;;18.49;57.49;100266.06;4469888;32;33099;-78
2023/09/07 02:18:12;;;;;;;2.50;1.33;;;;;;;18.42;57.66;100264.56;4469927;32;33881;-80
2023/09/07 02:20:41;;;;;;;1.62;1.20;;;;;;;18.40;57.75;100266.38;4472177;32;32939;-79
2023/09/07 02:23:10;;;;;;;2.50;1.17;;;;;;;18.28;57.93;100279.03;4467766;32;33573;-79
2023/09/07 02:25:38;;;;;;;2.45;1.20;;;;;;;18.32;57.81;100266.66;4463200;32;34074;-78
2023/09/07 02:28:08;;;;;;;1.65;1.02;;;;;;;18.41;57.75;100268.09;4460460;32;33985;-79
2023/09/07 02:30:38;;;;;;;2.08;1.20;;;;;;;18.31;57.76;100272.81;4464446;32;33413;-79
2023/09/07 02:33:07;;;;;;;1.25;1.08;;;;;;;18.21;57.92;100277.53;4462266;32;33940;-79
2023/09/07 02:35:38;;;;;;;1.85;0.98;;;;;;;18.08;58.17;100284.16;4468378;32;34107;-78
2023/09/07 02:38:07;;;;;;;1.12;0.90;;;;;;;18.19;58.09;100281.97;4465889;32;34005;-79
2023/09/07 02:40:41;;;;;;;1.17;1.02;;;;;;;17.95;58.91;100281.06;4472055;32;34669;-78
2023/09/07 02:43:10;;;;;;;1.70;1.20;;;;;;;18.03;58.72;100281.69;4460227;32;33424;-79
2023/09/07 02:45:40;;;;;;;1.55;1.10;;;;;;;17.95;59.10;100288.09;4465825;32;34633;-77
2023/09/07 02:48:09;;;;;;;1.90;1.25;;;;;;;18.12;58.41;100285.72;4460559;32;33099;-79
2023/09/07 02:50:39;;;;;;;2.65;1.25;;;;;;;18.10;58.56;100282.31;4460741;32;32665;-78
2023/09/07 02:53:09;;;;;;;2.47;1.30;;;;;;;18.08;58.82;100282.38;4465639;32;33647;-78
2023/09/07 02:55:40;;;;;;;1.62;1.10;;;;;;;18.02;58.95;100284.34;4467484;32;34537;-77
2023/09/07 02:58:09;;;;;;;2.40;1.05;;;;;;;17.95;59.30;100290.72;4461661;32;33590;-78
2023/09/07 03:00:44;;;;;;;2.30;1.45;;;;;;;18.10;58.81;100284.94;4465668;32;33004;-78
2023/09/07 03:03:14;;;;;;;2.30;1.10;;;;;;;17.99;59.10;100290.56;4464303;32;33855;-79
2023/09/07 03:05:44;;;;;;;1.90;0.98;;;;;;;18.01;59.14;100288.75;4463387;32;33821;-77
2023/09/07 03:08:14;;;;;;;2.12;1.02;;;;;;;18.01;59.13;100282.62;4460662;32;33546;-80
2023/09/07 03:10:43;;;;;;;1.85;1.10;;;;;;;18.01;59.25;100282.62;4460712;32;34627;-78
2023/09/07 03:13:12;;;;;;;1.58;0.90;;;;;;;17.91;59.39;100284.72;4461141;32;33861;-77
2023/09/07 03:15:45;;;;;;;1.42;0.93;;;;;;;17.97;59.25;100283.66;4468665;32;34042;-78
2023/09/07 03:18:14;;;;;;;1.60;1.08;;;;;;;17.90;59.32;100283.88;4474466;32;34182;-77
2023/09/07 03:20:44;;;;;;;3.03;1.37;;;;;;;17.98;59.17;100288.00;4464541;32;32967;-78
2023/09/07 03:23:15;;;;;;;1.55;1.00;;;;;;;17.78;59.92;100289.47;4460479;32;34612;-78
2023/09/07 03:25:47;;;;;;;2.45;1.37;;;;;;;17.77;59.60;100276.41;4464955;32;33641;-78
2023/09/07 03:28:16;;;;;;;1.92;1.33;;;;;;;17.73;59.68;100285.28;4463351;32;34556;-79
2023/09/07 03:30:48;;;;;;;1.45;0.88;;;;;;;17.94;59.27;100279.34;4468307;32;34310;-79
2023/09/07 03:33:16;;;;;;;4.37;1.60;;;;;;;17.91;59.23;100282.09;4467548;32;33910;-80
2023/09/07 03:35:45;;;;;;;1.87;1.17;;;;;;;17.89;59.33;100284.75;4465944;32;34982;-77
2023/09/07 03:38:14;;;;;;;1.48;1.08;;;;;;;17.76;59.52;100293.94;4467446;32;33779;-78
2023/09/07 03:40:43;;;;;;;2.20;1.15;;;;;;;17.74;59.63;100292.28;4464183;32;33693;-79
2023/09/07 03:43:12;;;;;;;2.08;1.48;;;;;;;17.85;59.16;100287.53;4464136;32;34797;-79
2023/09/07 03:45:41;;;;;;;2.20;1.00;;;;;;;17.84;59.28;100288.47;4468230;32;34552;-78
2023/09/07 03:48:12;;;;;;;1.42;1.05;;;;;;;17.86;59.40;100284.87;4470970;32;33912;-78
2023/09/07 03:50:41;;;;;;;2.33;1.50;;;;;;;17.60;60.09;100288.31;4461619;32;33019;-78
2023/09/07 03:53:10;;;;;;;2.87;1.58;;;;;;;17.67;60.11;100287.22;4462046;32;33847;-78
2023/09/07 03:55:42;;;;;;;2.28;1.33;;;;;;;17.72;60.06;100289.69;4467042;32;33755;-77
2023/09/07 03:58:12;;;;;;;2.60;1.45;;;;;;;17.78;59.92;100293.88;4472462;32;33415;-79
2023/09/07 04:00:41;;;;;;;1.65;1.25;;;;;;;17.81;59.89;100299.06;4483389;32;32910;-78
2023/09/07 04:03:12;;;;;;;2.25;1.20;;;;;;;17.60;60.09;100296.19;4478575;32;34296;-78
2023/09/07 04:05:41;;;;;;;3.03;1.62;;;;;;;17.62;60.02;100293.53;4477403;31;33259;-77
2023/09/07 04:08:10;;;;;;;1.73;1.02;;;;;;;17.66;60.03;100297.75;4478109;32;33556;-78
2023/09/07 04:10:41;;;;;;;2.40;1.20;;;;;;;17.70;59.85;100294.97;4482738;32;33206;-79
2023/09/07 04:13:10;;;;;;;1.85;1.12;;;;;;;17.61;60.09;100300.53;4478769;32;34387;-78
2023/09/07 04:15:43;;;;;;;1.37;1.10;;;;;;;17.52;60.42;100290.34;4478054;32;34874;-80
2023/09/07 04:18:16;;;;;;;3.80;1.50;;;;;;;17.64;60.12;100300.44;4478117;31;35261;-78
2023/09/07 04:20:45;;;;;;;2.80;1.02;;;;;;;17.69;59.94;100298.53;4476450;32;33411;-79
2023/09/07 04:23:15;;;;;;;2.08;1.17;;;;;;;17.67;59.88;100307.34;4471296;32;34769;-78
2023/09/07 04:25:44;;;;;;;3.80;1.45;;;;;;;17.66;59.79;100297.75;4474862;32;33844;-78
2023/09/07 04:28:13;;;;;;;1.85;1.15;;;;;;;17.63;60.05;100308.34;4470867;32;33542;-78
2023/09/07 04:30:42;;;;;;;2.42;1.30;;;;;;;17.80;59.39;100305.19;4472914;32;33082;-77
2023/09/07 04:33:11;;;;;;;2.20;1.20;;;;;;;17.68;59.52;100306.44;4466889;32;33943;-78
2023/09/07 04:35:41;;;;;;;1.50;0.95;;;;;;;17.83;59.16;100311.22;4469994;32;34736;-78
2023/09/07 04:38:10;;;;;;;1.93;1.20;;;;;;;17.74;59.38;100308.88;4461971;32;33848;-78
2023/09/07 04:40:39;;;;;;;1.45;1.00;;;;;;;17.73;59.48;100306.28;4464347;32;32861;-78
2023/09/07 04:43:08;;;;;;;2.53;1.05;;;;;;;17.79;59.34;100309.56;4460814;32;33501;-79
2023/09/07 04:45:37;;;;;;;2.05;1.35;;;;;;;17.87;58.67;100307.56;4468625;32;34439;-78
2023/09/07 04:48:06;;;;;;;1.87;1.30;;;;;;;17.95;58.46;100299.44;4467099;32;33468;-78
2023/09/07 04:50:35;;;;;;;2.60;1.52;;;;;;;17.87;59.00;100307.56;4460678;32;32874;-79
2023/09/07 04:53:05;;;;;;;2.75;1.73;;;;;;;18.05;58.37;100298.25;4462748;32;33561;-78
2023/09/07 04:55:38;;;;;;;3.07;1.47;;;;;;;18.12;57.77;100304.09;4468834;32;33103;-77
2023/09/07 04:58:08;;;;;;;3.45;1.80;;;;;;;18.00;58.46;100296.66;4469574;31;33079;-78
2023/09/07 05:00:37;;;;;;;2.30;1.30;;;;;;;17.97;58.42;100305.50;4468121;32;33496;-78
2023/09/07 05:03:05;;;;;;;3.42;1.40;;;;;;;18.15;57.29;100311.06;4460115;32;33802;-78
2023/09/07 05:05:35;;;;;;;3.42;1.67;;;;;;;17.95;58.21;100302.06;4461688;32;32249;-78
2023/09/07 05:08:06;;;;;;;1.12;1.00;;;;;;;18.13;57.87;100311.09;4467980;32;34740;-78
2023/09/07 05:10:35;;;;;;;2.15;1.23;;;;;;;18.31;56.94;100310.47;4471732;32;33001;-78
2023/09/07 05:13:04;;;;;;;2.17;1.48;;;;;;;18.18;57.65;100313.56;4460546;32;34537;-80
2023/09/07 05:15:33;;;;;;;2.35;1.60;;;;;;;18.08;57.43;100313.03;4461231;32;33476;-78
2023/09/07 05:18:02;;;;;;;2.67;1.25;;;;;;;18.30;57.19;100318.37;4480684;32;33790;-78
2023/09/07 05:20:31;;;;;;;1.73;1.10;;;;;;;18.38;57.15;100315.50;4468292;32;33826;-78
2023/09/07 05:23:00;;;;;;;2.33;1.20;;;;;;;18.49;56.30;100323.84;4462800;32;33825;-80
2023/09/07 05:25:31;;;;;;;1.67;0.90;;;;;;;18.43;56.62;100326.69;4464833;32;33659;-78
2023/09/07 05:28:00;;;;;;;1.52;1.10;;;;;;;18.65;56.62;100322.41;4463165;32;35060;-78
2023/09/07 05:30:29;;;;;;;1.20;0.98;;;;;;;18.84;55.71;100317.31;4471206;32;33767;-78
2023/09/07 05:32:58;;;;;;;2.17;1.45;;;;;;;18.96;55.83;100319.50;4459690;32;34776;-79
2023/09/07 05:35:32;;;;;;;2.12;1.10;;;;;;;18.99;56.92;100326.41;4461581;31;32376;-79
2023/09/07 05:38:01;;;;;;;1.10;0.95;;;;;;;19.12;56.23;100324.19;4465873;32;33709;-78
2023/09/07 05:40:34;;;;;;;1.85;1.12;;;;;;;19.26;54.23;100327.16;4470627;32;36154;-77
2023/09/07 05:43:06;;;;;;;1.92;1.20;;;;;;;19.36;53.67;100325.00;4467425;32;34289;-77
2023/09/07 05:45:36;;;;;;;2.87;1.30;;;;;;;19.57;53.11;100321.53;4461058;32;34968;-79
2023/09/07 05:48:07;;;;;;;1.77;1.20;;;;;;;19.71;53.82;100330.66;4467537;32;34544;-78
2023/09/07 05:50:38;;;;;;;1.02;0.80;;;;;;;19.75;52.89;100327.84;4459777;32;33251;-79
2023/09/07 05:53:07;;;;;;;3.12;1.25;;;;;;;19.65;54.68;100326.47;4464638;32;33502;-78
2023/09/07 05:55:37;;;;;;;1.20;0.90;;;;;;;19.43;55.46;100331.75;4461197;32;32204;-77
2023/09/07 05:58:07;;;;;;;2.62;1.25;;;;;;;19.89;53.57;100323.78;4461418;32;33977;-80
2023/09/07 06:00:38;;;;;;;2.80;1.75;;;;;;;19.87;54.51;100328.25;4469614;32;32785;-77
2023/09/07 06:03:09;;;;;;;1.60;1.05;;;;;;;19.81;55.00;100332.88;4465078;32;34256;-78
2023/09/07 06:05:39;;;;;;;3.53;2.23;;;;;;;20.14;55.06;100337.62;4461402;32;33516;-78
2023/09/07 06:08:08;;;;;;;2.73;1.03;;;;;;;19.84;55.35;100334.50;4468934;32;33025;-79
2023/09/07 06:10:38;;;;;;;2.87;1.42;;;;;;;20.19;54.00;100340.06;4467235;32;33081;-79
2023/09/07 06:13:08;;;;;;;1.87;1.00;;;;;;;19.94;54.08;100340.25;4458173;32;33626;-78
2023/09/07 06:15:37;;;;;;;3.58;1.62;;;;;;;20.32;53.11;100348.28;4469752;32;34577;-78
2023/09/07 06:18:06;;;;;;;2.10;1.00;;;;;;;20.17;53.32;100348.03;4469306;32;33335;-79
2023/09/07 06:20:36;;;;;;;2.97;1.37;;;;;;;19.94;54.38;100343.75;4461309;32;33553;-79
2023/09/07 06:23:05;;;;;;;1.90;1.12;;;;;;;20.38;52.99;100343.62;4464193;32;33395;-78
2023/09/07 06:25:33;;;;;;;1.83;1.00;;;;;;;20.28;53.48;100344.09;4478189;32;33706;-79
2023/09/07 06:28:05;;;;;;;3.08;1.65;;;;;;;20.56;53.24;100338.50;4467355;32;33322;-79
2023/09/07 06:30:34;;;;;;;1.85;1.73;;;;;;;20.60;53.81;100348.00;4470492;31;33205;-79
2023/09/07 06:33:03;;;;;;;1.73;1.23;;;;;;;20.18;55.09;100346.28;4462878;32;33475;-78
2023/09/07 06:35:32;;;;;;;1.85;1.08;;;;;;;20.54;54.22;100345.59;4465320;32;34299;-78
2023/09/07 06:38:02;;;;;;;2.47;1.37;;;;;;;20.60;53.56;100350.62;4468465;32;33471;-79
2023/09/07 06:40:31;;;;;;;1.45;1.10;;;;;;;20.16;54.84;100353.38;4467983;32;32303;-79
2023/09/07 06:43:00;;;;;;;2.33;2.05;;;;;;;20.56;53.50;100359.59;4466483;32;33317;-77
2023/09/07 06:45:30;;;;;;;1.90;1.20;;;;;;;20.27;54.96;100356.41;4464124;31;33927;-79
2023/09/07 06:47:59;;;;;;;2.42;1.25;;;;;;;20.88;53.41;100352.91;4467427;32;33787;-78
2023/09/07 06:50:28;;;;;;;2.25;1.42;;;;;;;20.86;53.58;100349.47;4470536;32;33521;-77
2023/09/07 06:52:57;;;;;;;2.10;0.95;;;;;;;21.02;53.24;100352.25;4465429;32;34335;-78
2023/09/07 06:55:26;;;;;;;1.85;1.00;;;;;;;21.09;52.80;100354.56;4463422;32;33769;-78
2023/09/07 06:57:56;;;;;;;4.62;1.27;;;;;;;21.18;52.23;100360.31;4465966;32;33848;-78
2023/09/07 07:00:25;;;;;;;1.73;1.00;;;;;;;21.26;52.11;100358.19;4467483;32;32563;-79
2023/09/07 07:02:56;;;;;;;2.92;1.40;;;;;;;20.99;52.77;100357.69;4459579;32;33466;-77
2023/09/07 07:05:29;;;;;;;3.55;1.37;;;;;;;21.04;52.81;100353.88;4469243;32;33678;-78
2023/09/07 07:07:58;;;;;;;2.12;1.12;;;;;;;21.40;52.14;100365.47;4472130;31;34265;-78
2023/09/07 07:10:27;;;;;;;4.60;1.80;;;;;;;21.90;49.60;100372.75;4476769;32;34044;-78
2023/09/07 07:12:56;;;;;;;2.95;1.77;;;;;;;21.58;50.36;100369.91;4470801;32;33714;-78
2023/09/07 07:15:25;;;;;;;2.78;1.25;;;;;;;21.44;50.82;100369.69;4472934;32;33684;-77
2023/09/07 07:17:53;;;;;;;3.75;1.30;;;;;;;21.36;50.81;100370.03;4475279;31;34252;-79
2023/09/07 07:20:27;;;;;;;3.67;1.45;;;;;;;21.87;50.49;100375.56;4480952;32;33287;-77
2023/09/07 07:22:57;;;;;;;2.25;1.23;;;;;;;22.04;50.04;100365.00;4480305;32;33704;-78
2023/09/07 07:25:26;;;;;;;2.47;1.52;;;;;;;22.41;48.91;100375.53;4472411;32;34627;-79
2023/09/07 07:27:55;;;;;;;3.28;1.30;;;;;;;22.29;49.06;100369.06;4472507;32;33600;-78
2023/09/07 07:30:24;;;;;;;4.50;1.75;;;;;;;22.35;49.45;100379.34;4472418;31;33395;-78
2023/09/07 07:32:53;;;;;;;3.42;1.40;;;;;;;22.51;49.13;100380.25;4479687;31;34339;-79
2023/09/07 07:35:22;;;;;;;1.92;0.90;;;;;;;21.70;50.40;100374.59;4473110;32;34465;-78
2023/09/07 07:37:52;;;;;;;2.55;1.08;;;;;;;22.04;49.91;100378.22;4474292;32;33451;-78
2023/09/07 07:40:21;;;;;;;1.85;1.20;;;;;;;22.28;49.22;100375.31;4476171;32;32668;-79
2023/09/07 07:42:53;;;;;;;3.10;1.33;;;;;;;22.45;48.52;100377.09;4479830;32;33903;-78
2023/09/07 07:45:22;;;;;;;3.17;1.45;;;;;;;22.81;48.40;100376.97;4472491;31;34477;-78
2023/09/07 07:47:51;;;;;;;2.30;1.20;;;;;;;22.99;48.39;100373.34;4468542;32;33599;-79
2023/09/07 07:50:20;;;;;;;2.78;1.33;;;;;;;22.88;49.68;100380.97;4463243;32;32950;-78
2023/09/07 07:52:50;;;;;;;2.97;1.10;;;;;;;23.32;47.69;100375.09;4467591;32;33544;-80
2023/09/07 07:55:20;;;;;;;3.62;1.62;;;;;;;23.17;47.84;100370.62;4473472;32;33877;-78
2023/09/07 07:57:49;;;;;;;2.90;1.10;;;;;;;23.27;47.54;100376.28;4468945;32;34229;-79
2023/09/07 08:00:18;;;;;;;1.62;1.17;;;;;;;23.12;47.47;100370.91;4472709;32;33142;-78
2023/09/07 08:02:48;;;;;;;3.40;2.20;;;;;;;23.32;47.82;100374.25;4472460;32;34802;-77
2023/09/07 08:05:17;;;;;;;3.03;1.30;;;;;;;23.54;46.77;100385.34;4477265;32;33375;-78
2023/09/07 08:07:46;;;;;;;1.70;1.10;;;;;;;23.47;46.71;100375.19;4475033;31;33832;-79
2023/09/07 08:10:15;;;;;;;4.15;2.15;;;;;;;23.38;46.78;100376.53;4472656;32;32072;-78
2023/09/07 08:12:46;;;;;;;3.22;1.30;;;;;;;23.40;47.17;100377.31;4475428;32;33881;-78
2023/09/07 08:15:20;;;;;;;1.45;1.02;;;;;;;23.33;46.83;100376.78;4475299;32;34159;-77
2023/09/07 08:17:49;;;;;;;3.85;1.37;;;;;;;23.73;46.01;100374.59;4478305;32;35282;-78
2023/09/07 08:20:19;;;;;;;2.28;1.40;;;;;;;23.82;45.94;100374.09;4473961;32;33729;-78
2023/09/07 08:22:48;;;;;;;3.65;1.30;;;;;;;23.95;46.15;100379.50;4467920;32;34327;-79
2023/09/07 08:25:17;;;;;;;4.07;1.33;;;;;;;24.08;45.33;100370.84;4471782;32;34358;-79
2023/09/07 08:27:49;;;;;;;3.10;1.33;;;;;;;23.51;46.43;100371.41;4474709;32;32729;-77
2023/09/07 08:30:18;;;;;;;4.43;1.90;;;;;;;23.84;45.80;100368.66;4467976;32;33061;-78
2023/09/07 08:32:47;;;;;;;2.28;1.20;;;;;;;24.18;44.39;100367.56;4470627;32;33609;-79
2023/09/07 08:35:17;;;;;;;4.80;1.70;;;;;;;24.19;45.21;100371.09;4469968;32;34388;-77
2023/09/07 08:37:46;;;;;;;2.67;1.50;;;;;;;23.99;45.43;100366.94;4473547;32;33371;-78
2023/09/07 08:40:16;;;;;;;2.95;1.40;;;;;;;23.68;45.57;100366.03;4479665;32;32847;-79
2023/09/07 08:42:45;;;;;;;2.78;1.35;;;;;;;24.30;44.79;100370.44;4469110;32;34208;-79
2023/09/07 08:45:22;;;;;;;1.98;1.08;;;;;;;24.13;45.22;100364.31;4471602;32;34667;-78
2023/09/07 08:47:52;;;;;;;2.65;1.08;;;;;;;24.52;44.33;100356.75;4467857;32;34348;-79
2023/09/07 08:50:23;;;;;;;2.47;1.42;;;;;;;24.38;43.52;100365.50;4477392;32;33063;-77
2023/09/07 08:52:53;;;;;;;2.17;1.20;;;;;;;24.21;44.50;100354.12;4470651;32;34579;-78
2023/09/07 08:55:22;;;;;;;2.97;1.30;;;;;;;24.51;44.10;100355.06;4468022;32;33483;-79
2023/09/07 08:57:51;;;;;;;2.20;1.12;;;;;;;24.83;43.46;100350.44;4468911;32;33370;-79
2023/09/07 09:00:21;;;;;;;4.15;1.35;;;;;;;24.53;44.09;100348.72;4470256;32;34293;-79
2023/09/07 09:02:50;;;;;;;3.15;1.55;;;;;;;24.72;43.39;100353.78;4476983;32;33705;-78
2023/09/07 09:05:25;;;;;;;3.60;1.77;;;;;;;25.07;43.07;100348.91;4468881;32;34425;-77
2023/09/07 09:08:02;;;;;;;3.85;1.87;;;;;;;25.11;42.83;100353.06;4471777;32;33027;-78
2023/09/07 09:10:31;;;;;;;5.50;2.35;;;;;;;25.22;41.91;100351.56;4473363;32;34274;-78
2023/09/07 09:13:00;;;;;;;3.80;1.27;;;;;;;25.24;40.93;100345.19;4477460;32;33915;-79
2023/09/07 09:15:30;;;;;;;3.12;1.37;;;;;;;25.38;40.99;100344.31;4476606;32;33828;-78
2023/09/07 09:18:10;;;;;;;2.55;1.17;;;;;;;25.41;40.89;100341.47;4474039;32;33024;-77
2023/09/07 09:20:40;;;;;;;3.20;1.37;;;;;;;25.39;41.15;100338.03;4473838;32;33645;-78
2023/09/07 09:23:09;;;;;;;2.58;1.33;;;;;;;24.90;41.74;100338.50;4474237;32;34552;-79
2023/09/07 09:25:37;;;;;;;1.83;1.20;;;;;;;25.38;40.85;100336.34;4479062;31;33639;-79
2023/09/07 09:28:06;;;;;;;4.50;1.33;;;;;;;25.23;40.25;100329.38;4474513;32;33511;-78
2023/09/07 09:30:37;;;;;;;0.95;0.80;;;;;;;25.31;40.17;100337.69;4473457;32;33431;-78
2023/09/07 09:33:06;;;;;;;1.65;1.02;;;;;;;25.36;40.49;100338.25;4476962;32;33759;-78
2023/09/07 09:35:39;;;;;;;3.50;1.58;;;;;;;25.45;39.94;100329.69;4477426;32;33594;-78
2023/09/07 09:38:08;;;;;;;2.55;1.37;;;;;;;25.65;40.00;100335.50;4479509;32;34514;-78
2023/09/07 09:40:37;;;;;;;1.42;0.90;;;;;;;25.62;39.47;100327.75;4474150;32;33560;-79
2023/09/07 09:43:06;;;;;;;2.83;1.17;;;;;;;25.56;39.78;100328.97;4472874;31;33444;-79
2023/09/07 09:45:38;;;;;;;1.73;1.08;;;;;;;25.62;39.41;100331.25;4474615;32;34728;-78
2023/09/07 09:48:07;;;;;;;3.22;1.00;;;;;;;25.96;39.10;100335.19;4479164;32;33983;-79
2023/09/07 09:50:40;;;;;;;1.75;1.10;;;;;;;25.80;38.14;100330.97;4474365;32;34249;-79
2023/09/07 09:53:09;;;;;;;1.98;0.90;;;;;;;25.81;38.61;100330.88;4474788;32;33820;-79
2023/09/07 09:55:38;;;;;;;2.05;1.00;;;;;;;26.24;38.19;100327.16;4473128;32;33770;-78
2023/09/07 09:58:07;;;;;;;3.30;1.25;;;;;;;26.31;37.84;100331.09;4472359;32;34575;-79
2023/09/07 10:00:37;;;;;;;1.58;0.82;;;;;;;26.38;36.53;100327.06;4478685;32;33815;-78
2023/09/07 10:03:08;;;;;;;;;;;;;;;26.37;37.35;100322.72;4475700;32;34606;-78
2023/09/07 10:05:37;;;;;;;2.33;1.33;;;;;;;25.73;38.44;100331.41;4472223;32;33692;-79
2023/09/07 10:08:11;;;;;;;2.05;0.95;;;;;;;26.43;37.34;100324.94;4469623;32;34072;-79
2023/09/07 10:10:42;;;;;;;2.17;1.02;;;;;;;26.42;36.96;100327.72;4476851;32;34330;-79
2023/09/07 10:13:15;;;;;;;4.03;1.35;;;;;;;26.37;36.16;100328.87;4468054;32;33581;-78
2023/09/07 10:15:45;;;;;;;3.70;1.73;;;;;;;26.54;36.46;100326.91;4471712;32;33160;-78
2023/09/07 10:18:15;;;;;;;3.60;1.10;;;;;;;26.65;35.81;100326.13;4469871;32;33075;-79
2023/09/07 10:20:51;;;;;;;2.93;1.03;;;;;;;26.60;35.25;100322.00;4467434;32;32798;-78
2023/09/07 10:23:20;;;;;;;2.53;1.15;;;;;;;26.19;35.48;100322.16;4475574;32;33528;-78
2023/09/07 10:25:51;;;;;;;2.40;1.30;;;;;;;26.16;36.01;100319.72;4469529;32;33884;-78
2023/09/07 10:28:23;;;;;;;2.30;1.10;;;;;;;26.63;35.83;100318.28;4473724;32;33641;-77
2023/09/07 10:31:04;;;;;;;1.70;1.00;;;;;;;26.70;34.65;100316.00;4469426;32;32685;-78
2023/09/07 10:33:33;;;;;;;2.03;1.00;;;;;;;26.92;35.87;100310.88;4470599;32;33872;-78
2023/09/07 10:36:04;;;;;;;3.97;1.40;;;;;;;26.31;35.88;100312.47;4475686;32;33491;-79
2023/09/07 10:38:33;;;;;;;3.30;1.23;;;;;;;26.84;35.33;100307.91;4470556;32;33615;-78
2023/09/07 10:41:04;;;;;;;3.72;1.70;;;;;;;26.74;35.66;100296.22;4473884;32;33521;-77
2023/09/07 10:43:34;;;;;;;;;;;;;;;26.18;35.56;100302.69;4473641;32;33868;-79
2023/09/07 10:46:05;;;;;;;2.85;0.82;;;;;;;26.51;35.74;100300.47;4480478;32;33800;-78
2023/09/07 10:48:34;;;;;;;2.62;0.90;;;;;;;26.68;35.54;100292.19;4475899;32;33071;-77
2023/09/07 10:51:04;;;;;;;1.98;1.15;;;;;;;26.66;35.80;100295.91;4476245;32;33787;-79
2023/09/07 10:53:33;;;;;;;2.33;1.27;;;;;;;26.60;35.82;100299.84;4475749;32;33646;-79
2023/09/07 10:56:04;;;;;;;2.72;1.20;;;;;;;26.87;34.49;100297.03;4475494;32;33724;-78
2023/09/07 10:58:35;;;;;;;2.62;1.40;;;;;;;27.39;32.89;100287.09;4477420;32;34571;-78
2023/09/07 11:01:06;;;;;;;2.05;0.90;;;;;;;27.34;33.41;100286.59;4474099;32;33028;-79
2023/09/07 11:03:36;;;;;;;2.35;1.10;;;;;;;27.60;33.32;100280.16;4471913;32;34363;-79
2023/09/07 11:06:09;;;;;;;3.17;1.35;;;;;;;27.47;34.97;100284.69;4472025;32;34116;-78
2023/09/07 11:08:38;;;;;;;3.05;1.30;;;;;;;26.96;34.99;100288.37;4475651;32;33546;-78
2023/09/07 11:11:09;;;;;;;1.90;1.27;;;;;;;26.96;35.09;100285.72;4475917;32;32812;-78
2023/09/07 11:13:38;;;;;;;1.67;1.00;;;;;;;26.94;33.84;100282.34;4476007;32;34126;-78
2023/09/07 11:16:10;;;;;;;2.40;0.98;;;;;;;27.28;33.58;100279.91;4475631;32;34113;-78
2023/09/07 11:18:41;;;;;;;2.00;1.23;;;;;;;27.78;32.28;100277.06;4474116;32;33692;-79
2023/09/07 11:21:11;;;;;;;1.90;0.73;;;;;;;27.38;33.05;100267.59;4474754;32;35430;-78
2023/09/07 11:23:40;;;;;;;3.33;1.10;;;;;;;27.40;33.72;100267.47;4475443;32;33801;-79
2023/09/07 11:26:09;;;;;;;3.20;1.40;;;;;;;28.02;32.05;100263.72;4475265;32;33843;-79
2023/09/07 11:28:39;;;;;;;2.20;1.02;;;;;;;27.99;33.34;100269.28;4473068;32;33850;-79
2023/09/07 11:31:09;;;;;;;3.77;1.70;;;;;;;27.83;32.17;100257.13;4480711;31;33995;-79
2023/09/07 11:33:38;;;;;;;1.95;0.88;;;;;;;27.36;33.39;100272.19;4473864;32;32911;-78
2023/09/07 11:36:07;;;;;;;3.25;1.20;;;;;;;27.74;32.42;100264.94;4475052;32;34600;-78
2023/09/07 11:38:37;;;;;;;2.47;1.27;;;;;;;27.81;30.95;100264.37;4475109;32;33510;-78